createdAt,value
2018-10-19T00:03:06.131Z,100896.94
2018-10-19T00:08:09.591Z,100888.95
2018-10-19T00:13:13.188Z,100886.84
2018-10-19T00:18:16.639Z,100882.97
2018-10-19T00:23:20.151Z,100876.52
2018-10-19T00:28:23.693Z,100876.80
2018-10-19T00:33:27.169Z,100884.52
2018-10-19T00:38:30.649Z,100888.63
2018-10-19T00:43:34.164Z,100885.23
2018-10-19T00:48:37.666Z,100880.81
2018-10-19T00:53:41.184Z,100876.12
2018-10-19T00:58:44.700Z,100872.15
2018-10-19T01:03:48.257Z,100870.05
2018-10-19T01:08:51.765Z,100872.36
2018-10-19T01:13:55.243Z,100866.66
2018-10-19T01:18:58.792Z,100865.03
2018-10-19T01:24:02.295Z,100870.53
2018-10-19T01:29:05.975Z,100878.30
2018-10-19T01:34:09.431Z,100879.38
2018-10-19T01:39:13.552Z,100881.28
2018-10-19T01:44:17.102Z,100882.73
2018-10-19T01:49:21.123Z,100891.88
2018-10-19T01:54:24.608Z,100886.08
2018-10-19T01:59:28.156Z,100888.01
2018-10-19T02:04:31.657Z,100893.02
2018-10-19T02:09:35.258Z,100893.57
2018-10-19T02:14:39.198Z,100897.61
2018-10-19T02:19:42.697Z,100899.16
2018-10-19T02:24:46.200Z,100904.23
2018-10-19T02:29:49.667Z,100903.86
2018-10-19T02:34:53.157Z,100901.64
2018-10-19T02:39:56.644Z,100900.88
2018-10-19T02:45:00.323Z,100909.93
2018-10-19T02:50:04.221Z,100912.14
2018-10-19T02:55:08.604Z,100913.66
2018-10-19T03:00:12.911Z,100921.26
2018-10-19T03:05:16.537Z,100919.53
2018-10-19T03:10:19.944Z,100917.31
2018-10-19T03:15:23.473Z,100912.31
2018-10-19T03:20:27.007Z,100913.38
2018-10-19T03:25:30.583Z,100919.25
2018-10-19T03:30:34.127Z,100918.45
2018-10-19T03:35:37.643Z,100922.01
2018-10-19T03:40:41.176Z,100918.06
2018-10-19T03:45:44.699Z,100919.41
2018-10-19T03:50:48.223Z,100918.77
2018-10-19T03:55:52.513Z,100909.98
2018-10-19T04:00:56.000Z,100921.45
2018-10-19T04:05:59.569Z,100921.94
2018-10-19T04:11:03.131Z,100922.49
2018-10-19T04:16:06.776Z,100926.62
2018-10-19T04:21:10.402Z,100922.31
2018-10-19T04:26:13.962Z,100921.03
2018-10-19T04:31:17.505Z,100922.38
2018-10-19T04:36:20.987Z,100919.30
2018-10-19T04:41:24.720Z,100921.61
2018-10-19T04:46:28.211Z,100920.75
2018-10-19T04:51:31.759Z,100917.67
2018-10-19T04:56:35.256Z,100925.81
2018-10-19T05:01:38.707Z,100929.86
2018-10-19T05:06:42.290Z,100938.90
2018-10-19T05:11:45.772Z,100941.20
2018-10-19T05:16:49.283Z,100945.73
2018-10-19T05:21:52.722Z,100948.52
2018-10-19T05:26:56.195Z,100950.80
2018-10-19T05:31:59.671Z,100952.24
2018-10-19T05:37:03.147Z,100959.45
2018-10-19T05:42:07.716Z,100957.73
2018-10-19T05:47:11.215Z,100964.56
2018-10-19T05:52:14.946Z,100970.88
2018-10-19T05:57:18.443Z,100975.87
2018-10-19T06:02:22.082Z,100978.66
2018-10-19T06:07:25.428Z,100984.59
2018-10-19T06:12:28.915Z,100986.48
2018-10-19T06:17:32.766Z,100991.10
2018-10-19T06:22:37.084Z,100997.45
2018-10-19T06:27:40.584Z,101002.90
2018-10-19T06:32:44.156Z,101001.65
2018-10-19T06:37:47.775Z,101011.55
2018-10-19T06:42:51.309Z,101021.61
2018-10-19T06:47:54.987Z,101021.16
2018-10-19T06:52:58.489Z,101018.05
2018-10-19T06:58:02.068Z,101016.80
2018-10-19T07:03:06.323Z,101019.97
2018-10-19T07:08:09.923Z,101023.63
2018-10-19T07:13:13.402Z,101023.24
2018-10-19T07:18:16.903Z,101029.95
2018-10-19T07:23:20.355Z,101045.56
2018-10-19T07:28:23.831Z,101050.70
2018-10-19T07:33:27.262Z,101050.24
2018-10-19T07:38:30.735Z,101062.50
2018-10-19T07:43:34.182Z,101063.59
2018-10-19T07:48:37.685Z,101062.62
2018-10-19T07:53:41.114Z,101056.95
2018-10-19T07:58:44.567Z,101062.13
2018-10-19T08:03:48.186Z,101071.87
2018-10-19T08:08:51.714Z,101074.19
2018-10-19T08:13:55.203Z,101068.05
2018-10-19T08:18:58.638Z,101069.02
2018-10-19T08:24:02.095Z,101069.77
2018-10-19T08:29:05.946Z,101085.02
2018-10-19T08:34:09.381Z,101078.20
2018-10-19T08:39:12.889Z,101077.52
2018-10-19T08:44:16.379Z,101088.25
2018-10-19T08:49:19.904Z,101094.36
2018-10-19T08:54:24.368Z,101095.77
2018-10-19T08:59:27.866Z,101096.11
2018-10-19T09:04:31.394Z,101098.53
2018-10-19T09:09:35.113Z,101103.33
2018-10-19T09:14:57.735Z,101104.50
2018-10-19T09:20:01.229Z,101103.24
2018-10-19T09:25:05.007Z,101096.27
2018-10-19T09:30:08.760Z,101102.38
2018-10-19T09:35:12.734Z,101100.55
2018-10-19T09:40:16.585Z,101104.11
2018-10-19T09:45:20.129Z,101104.67
2018-10-19T09:50:23.852Z,101105.54
2018-10-19T09:55:28.087Z,101113.13
2018-10-19T10:00:37.064Z,101099.30
2018-10-19T10:05:40.740Z,101099.69
2018-10-19T10:10:45.181Z,101093.44
2018-10-19T10:15:48.936Z,101092.09
2018-10-19T10:20:53.955Z,101098.49
2018-10-19T10:25:57.503Z,101102.92
2018-10-19T10:31:01.177Z,101095.72
2018-10-19T10:36:05.603Z,101097.16
2018-10-19T10:41:09.787Z,101100.29
2018-10-19T10:46:13.263Z,101102.74
2018-10-19T10:51:16.709Z,101097.91
2018-10-19T10:56:20.171Z,101088.88
2018-10-19T11:01:23.685Z,101085.08
2018-10-19T11:06:27.139Z,101084.98
2018-10-19T11:11:30.588Z,101089.50
2018-10-19T11:16:34.051Z,101079.94
2018-10-19T11:21:37.509Z,101076.56
2018-10-19T11:26:41.022Z,101066.66
2018-10-19T11:31:44.519Z,101065.14
2018-10-19T11:36:48.028Z,101069.17
2018-10-19T11:41:51.496Z,101070.84
2018-10-19T11:46:58.319Z,101062.59
2018-10-19T11:52:02.038Z,101060.61
2018-10-19T11:57:05.948Z,101062.01
2018-10-19T12:02:10.341Z,101055.03
2018-10-19T12:07:14.027Z,101054.79
2018-10-19T12:12:17.559Z,101050.09
2018-10-19T12:17:21.098Z,101043.20
2018-10-19T12:22:24.571Z,101042.09
2018-10-19T12:27:28.124Z,101039.59
2018-10-19T12:32:31.625Z,101043.37
2018-10-19T12:37:35.266Z,101041.48
2018-10-19T12:42:39.090Z,101038.22
2018-10-19T12:47:43.828Z,101034.95
2018-10-19T12:52:47.304Z,101030.75
2018-10-19T12:57:50.801Z,101019.05
2018-10-19T13:02:54.426Z,101006.77
2018-10-19T13:07:57.904Z,101008.02
2018-10-19T13:13:01.477Z,101006.48
2018-10-19T13:18:05.002Z,100997.06
2018-10-19T13:23:08.538Z,101004.02
2018-10-19T13:28:12.110Z,101010.27
2018-10-19T13:33:15.793Z,101012.80
2018-10-19T13:38:19.858Z,101001.16
2018-10-19T13:43:23.635Z,100999.23
2018-10-19T13:48:27.177Z,100992.41
2018-10-19T13:53:30.673Z,100988.30
2018-10-19T13:58:34.178Z,100990.94
2018-10-19T14:03:37.611Z,100986.72
2018-10-19T14:08:41.104Z,100985.30
2018-10-19T14:13:45.706Z,100982.91
2018-10-19T14:18:49.188Z,100981.50
2018-10-19T14:23:52.639Z,100976.59
2018-10-19T14:28:56.132Z,100978.33
2018-10-19T14:33:59.531Z,100978.81
2018-10-19T14:39:03.031Z,100981.02
2018-10-19T14:44:06.488Z,100980.69
2018-10-19T14:49:10.024Z,100985.86
2018-10-19T14:54:13.539Z,100982.78
2018-10-19T14:59:17.228Z,100985.76
2018-10-19T15:04:20.577Z,100975.84
2018-10-19T15:09:24.141Z,100970.94
2018-10-19T15:14:27.476Z,100963.72
2018-10-19T15:19:31.026Z,100969.02
2018-10-19T15:24:34.497Z,100972.13
2018-10-19T15:29:38.104Z,100978.38
2018-10-19T15:34:41.530Z,100979.72
2018-10-19T15:39:44.999Z,100977.03
2018-10-19T15:44:48.467Z,100982.31
2018-10-19T15:49:51.929Z,100979.14
2018-10-19T15:54:55.487Z,100979.52
2018-10-19T15:59:59.292Z,100983.66
2018-10-19T16:05:02.944Z,100984.43
2018-10-19T16:10:07.165Z,100985.70
2018-10-19T16:15:11.194Z,100988.30
2018-10-19T16:20:15.094Z,100985.98
2018-10-19T16:25:18.627Z,100994.94
2018-10-19T16:30:22.667Z,100994.66
2018-10-19T16:35:26.594Z,100994.45
2018-10-19T16:40:30.093Z,100988.03
2018-10-19T16:45:33.539Z,100996.72
2018-10-19T16:50:37.070Z,100994.02
2018-10-19T16:55:40.519Z,100991.98
2018-10-19T17:00:43.986Z,100996.52
2018-10-19T17:05:47.417Z,101001.80
2018-10-19T17:10:50.932Z,101003.64
2018-10-19T17:15:54.388Z,101011.55
2018-10-19T17:20:57.874Z,101015.11
2018-10-19T17:26:01.416Z,101014.25
2018-10-19T17:31:05.435Z,101014.73
2018-10-19T17:36:09.009Z,101012.31
2018-10-19T17:41:12.638Z,101009.34
2018-10-19T17:46:16.291Z,101016.08
2018-10-19T17:51:19.785Z,101021.75
2018-10-19T17:56:23.394Z,101022.83
2018-10-19T18:01:26.900Z,101031.66
2018-10-19T18:06:30.411Z,101034.63
2018-10-19T18:11:34.068Z,101031.66
2018-10-19T18:16:37.632Z,101041.67
2018-10-19T18:21:41.251Z,101050.48
2018-10-19T18:26:44.698Z,101055.39
2018-10-19T18:31:48.185Z,101054.14
2018-10-19T18:36:51.867Z,101057.60
2018-10-19T18:41:55.401Z,101064.93
2018-10-19T18:46:58.890Z,101072.60
2018-10-19T18:52:02.381Z,101077.34
2018-10-19T18:57:05.885Z,101084.08
2018-10-19T19:02:09.443Z,101083.12
2018-10-19T19:07:12.846Z,101090.82
2018-10-19T19:12:16.378Z,101086.95
2018-10-19T19:17:19.869Z,101091.79
2018-10-19T19:22:23.417Z,101091.36
2018-10-19T19:27:27.038Z,101098.58
2018-10-19T19:32:30.743Z,101098.20
2018-10-19T19:37:34.303Z,101099.55
2018-10-19T19:42:46.070Z,101095.30
2018-10-19T19:47:54.785Z,101098.42
2018-10-19T19:52:58.260Z,101099.77
2018-10-19T19:58:01.917Z,101102.25
2018-10-19T20:03:05.526Z,101107.25
2018-10-19T20:08:09.112Z,101117.66
2018-10-19T20:13:12.502Z,101120.25
2018-10-19T20:18:16.222Z,101116.75
2018-10-19T20:23:19.698Z,101121.59
2018-10-19T20:28:23.194Z,101125.16
2018-10-19T20:33:26.988Z,101126.98
2018-10-19T20:38:30.685Z,101126.02
2018-10-19T20:43:34.193Z,101118.52
2018-10-19T20:48:37.717Z,101120.16
2018-10-19T20:53:41.202Z,101115.82
2018-10-19T20:58:44.635Z,101112.16
2018-10-19T21:03:48.166Z,101109.47
2018-10-19T21:08:51.564Z,101115.24
2018-10-19T21:13:55.190Z,101111.67
2018-10-19T21:18:58.674Z,101111.58
2018-10-19T21:24:02.106Z,101115.82
2018-10-19T21:29:05.938Z,101114.76
2018-10-19T21:34:09.458Z,101106.77
2018-10-19T21:39:13.319Z,101115.72
2018-10-19T21:44:17.002Z,101109.36
2018-10-19T21:49:20.613Z,101109.84
2018-10-19T21:54:24.173Z,101106.28
2018-10-19T21:59:27.683Z,101098.58
2018-10-19T22:04:31.257Z,101101.75
2018-10-19T22:09:34.823Z,101102.72
2018-10-19T22:14:39.804Z,101111.78
2018-10-19T22:19:43.246Z,101111.67
2018-10-19T22:24:46.820Z,101114.05
2018-10-19T22:29:50.263Z,101117.55
2018-10-19T22:34:53.785Z,101117.17
2018-10-19T22:39:57.293Z,101115.82
2018-10-19T22:45:00.726Z,101118.22
2018-10-19T22:50:04.374Z,101122.00
2018-10-19T22:55:07.914Z,101120.27
2018-10-19T23:00:11.370Z,101114.01
2018-10-19T23:05:14.865Z,101114.11
2018-10-19T23:10:18.355Z,101127.59
2018-10-19T23:15:26.237Z,101133.75
2018-10-19T23:20:29.702Z,101129.80
2018-10-19T23:25:33.175Z,101118.64
2018-10-19T23:30:36.703Z,101120.27
2018-10-19T23:35:40.492Z,101118.92
2018-10-19T23:40:45.036Z,101116.70
2018-10-19T23:45:48.960Z,101125.98
2018-10-19T23:50:52.710Z,101138.49
2018-10-19T23:55:56.292Z,101129.13
